createdAt,value
2022-12-11T00:02:28.478Z,100.00
2022-12-11T00:05:30.352Z,100.00
2022-12-11T00:08:32.174Z,100.00
2022-12-11T00:11:34.016Z,100.00
2022-12-11T00:14:35.852Z,100.00
2022-12-11T00:17:37.793Z,100.00
2022-12-11T00:20:39.587Z,100.00
2022-12-11T00:23:41.830Z,100.00
2022-12-11T00:26:43.695Z,100.00
2022-12-11T00:29:45.595Z,100.00
2022-12-11T00:32:47.442Z,100.00
2022-12-11T00:35:50.666Z,100.00
2022-12-11T00:38:53.547Z,100.00
2022-12-11T00:41:55.364Z,100.00
2022-12-11T00:44:57.333Z,100.00
2022-12-11T00:47:59.252Z,100.00
2022-12-11T00:51:01.106Z,100.00
2022-12-11T00:54:03.381Z,100.00
2022-12-11T00:57:07.699Z,100.00
2022-12-11T01:00:10.180Z,100.00
2022-12-11T01:03:13.532Z,100.00
2022-12-11T01:06:17.491Z,100.00
2022-12-11T01:09:37.713Z,100.00
2022-12-11T01:12:39.575Z,100.00
2022-12-11T01:15:43.004Z,100.00
2022-12-11T01:18:44.909Z,100.00
2022-12-11T01:21:46.756Z,100.00
2022-12-11T01:24:48.746Z,100.00
2022-12-11T01:27:51.745Z,100.00
2022-12-11T01:30:54.649Z,100.00
2022-12-11T01:33:56.474Z,100.00
2022-12-11T01:36:58.258Z,100.00
2022-12-11T01:40:01.100Z,100.00
2022-12-11T01:43:03.012Z,100.00
2022-12-11T01:46:05.015Z,100.00
2022-12-11T01:49:12.567Z,100.00
2022-12-11T01:52:16.286Z,100.00
2022-12-11T01:55:19.076Z,100.00
2022-12-11T01:58:22.709Z,100.00
2022-12-11T02:01:42.834Z,100.00
2022-12-11T02:04:46.063Z,100.00
2022-12-11T02:07:52.957Z,100.00
2022-12-11T02:11:12.442Z,100.00
2022-12-11T02:14:20.246Z,100.00
2022-12-11T02:17:26.005Z,100.00
2022-12-11T02:20:31.566Z,100.00
2022-12-11T02:23:36.359Z,100.00
2022-12-11T02:26:52.683Z,100.00
2022-12-11T02:30:01.555Z,100.00
2022-12-11T02:33:03.634Z,100.00
2022-12-11T02:36:07.340Z,100.00
2022-12-11T02:39:12.423Z,100.00
2022-12-11T02:42:16.385Z,100.00
2022-12-11T02:45:19.300Z,100.00
2022-12-11T02:48:23.044Z,100.00
2022-12-11T02:51:28.180Z,100.00
2022-12-11T02:54:32.092Z,100.00
2022-12-11T02:57:44.531Z,100.00
2022-12-11T03:00:46.531Z,100.00
2022-12-11T03:03:48.612Z,100.00
2022-12-11T03:06:53.398Z,100.00
2022-12-11T03:09:55.370Z,100.00
2022-12-11T03:12:58.506Z,100.00
2022-12-11T03:16:20.276Z,100.00
2022-12-11T03:19:25.158Z,100.00
2022-12-11T03:22:34.054Z,100.00
2022-12-11T03:25:56.843Z,100.00
2022-12-11T03:29:00.699Z,100.00
2022-12-11T03:32:11.380Z,100.00
2022-12-11T03:35:33.409Z,100.00
2022-12-11T03:38:44.427Z,100.00
2022-12-11T03:41:47.226Z,100.00
2022-12-11T03:44:51.205Z,100.00
2022-12-11T03:47:53.614Z,100.00
2022-12-11T03:50:56.049Z,100.00
2022-12-11T03:53:58.511Z,100.00
2022-12-11T03:57:01.698Z,100.00
2022-12-11T04:00:14.958Z,100.00
2022-12-11T04:03:17.937Z,100.00
2022-12-11T04:06:19.912Z,100.00
2022-12-11T04:09:21.698Z,100.00
2022-12-11T04:12:24.807Z,100.00
2022-12-11T04:15:26.577Z,100.00
2022-12-11T04:18:47.029Z,100.00
2022-12-11T04:22:07.433Z,100.00
2022-12-11T04:25:09.652Z,100.00
2022-12-11T04:28:11.995Z,100.00
2022-12-11T04:31:15.423Z,100.00
2022-12-11T04:34:17.539Z,100.00
2022-12-11T04:37:19.463Z,100.00
2022-12-11T04:40:21.481Z,100.00
2022-12-11T04:43:23.286Z,100.00
2022-12-11T04:46:25.158Z,100.00
2022-12-11T04:49:27.026Z,100.00
2022-12-11T04:52:28.989Z,100.00
2022-12-11T04:55:31.193Z,100.00
2022-12-11T04:58:33.319Z,100.00
2022-12-11T05:01:35.182Z,100.00
2022-12-11T05:04:37.073Z,100.00
2022-12-11T05:07:38.978Z,100.00
2022-12-11T05:10:43.453Z,100.00
2022-12-11T05:13:49.013Z,100.00
2022-12-11T05:16:50.885Z,100.00
2022-12-11T05:19:52.750Z,100.00
2022-12-11T05:22:54.622Z,100.00
2022-12-11T05:25:57.817Z,100.00
2022-12-11T05:28:59.826Z,100.00
2022-12-11T05:32:01.829Z,100.00
2022-12-11T05:35:03.940Z,100.00
2022-12-11T05:38:05.746Z,100.00
2022-12-11T05:41:07.832Z,100.00
2022-12-11T05:44:12.623Z,100.00
2022-12-11T05:47:14.423Z,100.00
2022-12-11T05:50:16.271Z,100.00
2022-12-11T05:53:18.151Z,100.00
2022-12-11T05:56:21.430Z,100.00
2022-12-11T05:59:23.585Z,100.00
2022-12-11T06:02:25.640Z,100.00
2022-12-11T06:05:27.596Z,100.00
2022-12-11T06:08:30.024Z,100.00
2022-12-11T06:11:33.135Z,100.00
2022-12-11T06:14:35.045Z,100.00
2022-12-11T06:17:37.108Z,100.00
2022-12-11T06:20:39.814Z,100.00
2022-12-11T06:23:42.372Z,100.00
2022-12-11T06:26:44.547Z,100.00
2022-12-11T06:29:46.746Z,100.00
2022-12-11T06:32:48.674Z,100.00
2022-12-11T06:35:50.761Z,100.00
2022-12-11T06:38:52.929Z,100.00
2022-12-11T06:41:56.080Z,100.00
2022-12-11T06:45:02.926Z,100.00
2022-12-11T06:48:05.070Z,100.00
2022-12-11T06:51:09.991Z,100.00
2022-12-11T06:54:12.355Z,100.00
2022-12-11T06:57:14.305Z,100.00
2022-12-11T07:00:16.734Z,100.00
2022-12-11T07:03:19.372Z,100.00
2022-12-11T07:06:21.952Z,100.00
2022-12-11T07:09:25.908Z,100.00
2022-12-11T07:12:27.921Z,100.00
2022-12-11T07:15:29.918Z,100.00
2022-12-11T07:18:33.113Z,100.00
2022-12-11T07:21:40.353Z,100.00
2022-12-11T07:24:42.922Z,100.00
2022-12-11T07:27:45.246Z,100.00
2022-12-11T07:30:48.989Z,100.00
2022-12-11T07:34:10.342Z,100.00
2022-12-11T07:37:13.363Z,100.00
2022-12-11T07:40:27.270Z,100.00
2022-12-11T07:43:41.156Z,100.00
2022-12-11T07:46:43.269Z,100.00
2022-12-11T07:49:50.417Z,100.00
2022-12-11T07:52:52.807Z,100.00
2022-12-11T07:55:55.141Z,100.00
2022-12-11T07:59:02.251Z,100.00
2022-12-11T08:02:08.544Z,100.00
2022-12-11T08:05:11.633Z,100.00
2022-12-11T08:08:14.025Z,100.00
2022-12-11T08:11:16.579Z,100.00
2022-12-11T08:14:20.249Z,100.00
2022-12-11T08:17:31.817Z,100.00
2022-12-11T08:39:07.059Z,100.00
2022-12-11T08:42:19.949Z,100.00
2022-12-11T08:45:22.404Z,100.00
2022-12-11T08:48:36.056Z,100.00
2022-12-11T08:51:49.563Z,100.00
2022-12-11T08:58:16.709Z,100.00
2022-12-11T09:04:56.608Z,100.00
2022-12-11T09:08:00.441Z,100.00
2022-12-11T09:11:26.471Z,100.00
2022-12-11T09:14:31.665Z,100.00
2022-12-11T09:17:38.566Z,100.00
2022-12-11T09:21:16.119Z,100.00
2022-12-11T09:24:18.479Z,100.00
2022-12-11T09:27:21.601Z,100.00
2022-12-11T09:30:36.376Z,100.00
2022-12-11T09:33:54.287Z,100.00
2022-12-11T09:36:56.915Z,100.00
2022-12-11T09:40:15.611Z,100.00
2022-12-11T09:43:23.019Z,100.00
2022-12-11T09:46:32.139Z,100.00
2022-12-11T09:49:47.054Z,100.00
2022-12-11T09:53:18.065Z,100.00
2022-12-11T09:56:25.866Z,100.00
2022-12-11T09:59:34.667Z,100.00
2022-12-11T10:06:23.000Z,100.00
2022-12-11T10:09:59.599Z,100.00
2022-12-11T10:13:21.791Z,100.00
2022-12-11T10:16:44.359Z,100.00
2022-12-11T10:19:49.274Z,100.00
2022-12-11T10:22:52.090Z,100.00
2022-12-11T10:26:01.316Z,100.00
2022-12-11T10:29:06.662Z,100.00
2022-12-11T10:32:36.707Z,100.00
2022-12-11T10:35:58.700Z,100.00
2022-12-11T10:39:01.143Z,100.00
2022-12-11T10:42:14.444Z,100.00
2022-12-11T10:45:16.781Z,100.00
2022-12-11T10:48:42.564Z,100.00
2022-12-11T10:51:56.582Z,100.00
2022-12-11T10:55:44.748Z,100.00
2022-12-11T10:59:16.086Z,100.00
2022-12-11T11:02:45.878Z,100.00
2022-12-11T11:05:51.726Z,100.00
2022-12-11T11:12:28.203Z,100.00
2022-12-11T11:15:33.447Z,100.00
2022-12-11T11:18:43.200Z,100.00
2022-12-11T11:22:11.490Z,100.00
2022-12-11T11:25:33.455Z,100.00
2022-12-11T11:28:49.367Z,100.00
2022-12-11T11:31:59.190Z,100.00
2022-12-11T11:35:33.813Z,100.00
2022-12-11T11:42:13.380Z,100.00
2022-12-11T11:45:26.717Z,100.00
2022-12-11T11:48:58.787Z,100.00
2022-12-11T11:52:13.765Z,100.00
2022-12-11T11:58:58.328Z,100.00
2022-12-11T12:02:03.065Z,100.00
2022-12-11T12:05:26.688Z,100.00
2022-12-11T12:09:07.564Z,100.00
2022-12-11T12:12:29.706Z,100.00
2022-12-11T12:16:29.242Z,100.00
2022-12-11T12:19:37.700Z,100.00
2022-12-11T12:22:40.361Z,100.00
2022-12-11T12:29:47.301Z,100.00
2022-12-11T12:33:14.072Z,100.00
2022-12-11T12:40:13.947Z,100.00
2022-12-11T12:43:25.784Z,100.00
2022-12-11T12:46:47.572Z,100.00
2022-12-11T12:50:05.112Z,100.00
2022-12-11T12:53:34.628Z,100.00
2022-12-11T12:56:54.779Z,100.00
2022-12-11T13:01:12.594Z,100.00
2022-12-11T13:04:57.363Z,100.00
2022-12-11T13:08:07.742Z,100.00
2022-12-11T13:11:23.365Z,100.00
2022-12-11T13:14:36.386Z,100.00
2022-12-11T13:17:48.005Z,100.00
2022-12-11T13:21:02.825Z,100.00
2022-12-11T13:24:14.331Z,100.00
2022-12-11T13:27:52.244Z,100.00
2022-12-11T13:31:12.914Z,100.00
2022-12-11T13:34:17.910Z,100.00
2022-12-11T13:37:37.236Z,100.00
2022-12-11T13:40:40.870Z,100.00
2022-12-11T13:43:58.130Z,100.00
2022-12-11T13:47:54.234Z,100.00
2022-12-11T13:51:06.858Z,100.00
2022-12-11T13:54:24.300Z,100.00
2022-12-11T13:57:29.153Z,100.00
2022-12-11T14:00:34.703Z,100.00
2022-12-11T14:03:40.354Z,100.00
2022-12-11T14:06:44.504Z,100.00
2022-12-11T14:09:57.182Z,100.00
2022-12-11T14:13:07.708Z,100.00
2022-12-11T14:16:32.027Z,100.00
2022-12-11T14:20:16.705Z,100.00
2022-12-11T14:23:33.106Z,100.00
2022-12-11T14:26:55.759Z,100.00
2022-12-11T14:33:37.350Z,100.00
2022-12-11T14:36:48.877Z,100.00
2022-12-11T14:40:12.252Z,100.00
2022-12-11T14:43:26.695Z,100.00
2022-12-11T14:46:48.099Z,100.00
2022-12-11T14:50:07.087Z,100.00
2022-12-11T14:53:25.176Z,100.00
2022-12-11T14:56:30.443Z,100.00
2022-12-11T14:59:41.463Z,100.00
2022-12-11T15:03:19.063Z,100.00
2022-12-11T15:06:25.066Z,100.00
2022-12-11T15:09:36.341Z,100.00
2022-12-11T15:12:55.088Z,100.00
2022-12-11T15:15:58.147Z,100.00
2022-12-11T15:19:05.581Z,100.00
2022-12-11T15:22:37.557Z,100.00
2022-12-11T15:26:26.949Z,100.00
2022-12-11T15:29:37.569Z,100.00
2022-12-11T15:33:00.491Z,100.00
2022-12-11T15:36:26.690Z,100.00
2022-12-11T15:39:32.927Z,100.00
2022-12-11T15:43:02.334Z,100.00
2022-12-11T15:46:07.590Z,100.00
2022-12-11T15:49:14.486Z,100.00
2022-12-11T15:52:49.563Z,100.00
2022-12-11T15:56:07.083Z,100.00
2022-12-11T15:59:19.295Z,100.00
2022-12-11T16:02:21.648Z,100.00
2022-12-11T16:05:27.407Z,100.00
2022-12-11T16:08:53.006Z,100.00
2022-12-11T16:12:12.333Z,100.00
2022-12-11T16:15:21.668Z,100.00
2022-12-11T16:18:26.746Z,100.00
2022-12-11T16:25:19.928Z,100.00
2022-12-11T16:28:30.783Z,100.00
2022-12-11T16:31:33.019Z,100.00
2022-12-11T16:34:36.460Z,100.00
2022-12-11T16:37:40.914Z,100.00
2022-12-11T16:40:44.479Z,100.00
2022-12-11T16:44:13.589Z,100.00
2022-12-11T16:47:17.156Z,99.74
2022-12-11T16:50:33.792Z,100.00
2022-12-11T16:53:36.144Z,100.00
2022-12-11T16:56:44.717Z,100.00
2022-12-11T16:59:53.367Z,100.00
2022-12-11T17:02:57.232Z,100.00
2022-12-11T17:05:59.248Z,100.00
2022-12-11T17:09:05.013Z,100.00
2022-12-11T17:12:07.726Z,100.00
2022-12-11T17:15:25.591Z,100.00
2022-12-11T17:18:28.635Z,100.00
2022-12-11T17:21:35.679Z,99.85
2022-12-11T17:24:38.168Z,100.00
2022-12-11T17:27:49.643Z,99.70
2022-12-11T17:30:53.569Z,99.90
2022-12-11T17:33:58.599Z,100.00
2022-12-11T17:37:05.737Z,100.00
2022-12-11T17:40:23.139Z,99.14
2022-12-11T17:43:25.337Z,98.99
2022-12-11T17:46:41.302Z,99.19
2022-12-11T17:49:44.969Z,100.00
2022-12-11T17:52:54.018Z,99.80
2022-12-11T17:56:02.611Z,99.55
2022-12-11T17:59:07.376Z,100.00
2022-12-11T18:02:10.873Z,100.00
2022-12-11T18:05:14.078Z,100.00
2022-12-11T18:08:18.750Z,100.00
2022-12-11T18:11:25.874Z,100.00
2022-12-11T18:14:31.805Z,100.00
2022-12-11T18:17:43.826Z,100.00
2022-12-11T18:21:21.691Z,100.00
2022-12-11T18:24:34.781Z,100.00
2022-12-11T18:27:37.190Z,100.00
2022-12-11T18:30:39.389Z,100.00
2022-12-11T18:33:49.135Z,100.00
2022-12-11T18:36:57.877Z,100.00
2022-12-11T18:40:18.920Z,100.00
2022-12-11T18:43:21.808Z,100.00
2022-12-11T18:46:30.178Z,100.00
2022-12-11T18:49:32.708Z,100.00
2022-12-11T18:52:36.384Z,100.00
2022-12-11T18:56:00.105Z,100.00
2022-12-11T18:59:25.837Z,100.00
2022-12-11T19:02:31.106Z,100.00
2022-12-11T19:05:36.612Z,100.00
2022-12-11T19:08:49.569Z,100.00
2022-12-11T19:11:56.273Z,100.00
2022-12-11T19:15:04.834Z,100.00
2022-12-11T19:18:07.043Z,100.00
2022-12-11T19:21:12.778Z,100.00
2022-12-11T19:24:21.418Z,100.00
2022-12-11T19:27:24.185Z,100.00
2022-12-11T19:30:28.301Z,100.00
2022-12-11T19:33:36.392Z,100.00
2022-12-11T19:36:38.802Z,100.00
2022-12-11T19:39:41.352Z,100.00
2022-12-11T19:46:06.714Z,100.00
2022-12-11T19:49:08.885Z,100.00
2022-12-11T19:52:12.060Z,100.00
2022-12-11T19:55:15.272Z,100.00
2022-12-11T19:58:17.882Z,100.00
2022-12-11T20:01:35.807Z,100.00
2022-12-11T20:04:41.451Z,100.00
2022-12-11T20:07:47.103Z,100.00
2022-12-11T20:11:10.512Z,100.00
2022-12-11T20:14:30.310Z,100.00
2022-12-11T20:17:43.827Z,100.00
2022-12-11T20:20:46.134Z,100.00
2022-12-11T20:23:49.459Z,100.00
2022-12-11T20:26:53.245Z,100.00
2022-12-11T20:29:58.942Z,100.00
2022-12-11T20:33:03.300Z,100.00
2022-12-11T20:36:12.812Z,100.00
2022-12-11T20:39:17.159Z,100.00
2022-12-11T20:42:26.646Z,100.00
2022-12-11T20:45:32.010Z,100.00
2022-12-11T20:48:34.987Z,100.00
2022-12-11T20:51:40.040Z,100.00
2022-12-11T20:54:57.666Z,100.00
2022-12-11T20:58:05.325Z,100.00
2022-12-11T21:01:08.774Z,100.00
2022-12-11T21:04:15.135Z,100.00
2022-12-11T21:07:18.225Z,100.00
2022-12-11T21:10:20.675Z,100.00
2022-12-11T21:13:25.203Z,100.00
2022-12-11T21:16:28.173Z,100.00
2022-12-11T21:19:31.060Z,100.00
2022-12-11T21:22:35.848Z,100.00
2022-12-11T21:25:40.796Z,100.00
2022-12-11T21:28:43.358Z,100.00
2022-12-11T21:31:47.737Z,100.00
2022-12-11T21:34:55.672Z,100.00
2022-12-11T21:37:58.724Z,100.00
2022-12-11T21:41:11.869Z,100.00
2022-12-11T21:45:31.086Z,100.00
2022-12-11T21:47:36.305Z,100.00
2022-12-11T21:50:43.109Z,100.00
2022-12-11T21:53:46.302Z,100.00
2022-12-11T21:56:49.254Z,100.00
2022-12-11T21:59:55.515Z,100.00
2022-12-11T22:03:05.243Z,100.00
2022-12-11T22:06:09.825Z,100.00
2022-12-11T22:09:17.595Z,100.00
2022-12-11T22:12:22.740Z,100.00
2022-12-11T22:15:25.648Z,100.00
2022-12-11T22:18:31.784Z,100.00
2022-12-11T22:21:35.937Z,100.00
2022-12-11T22:24:39.301Z,100.00
2022-12-11T22:27:42.346Z,100.00
2022-12-11T22:30:45.007Z,100.00
2022-12-11T22:33:49.926Z,100.00
2022-12-11T22:36:52.390Z,100.00
2022-12-11T22:39:55.059Z,100.00
2022-12-11T22:43:00.318Z,100.00
2022-12-11T22:46:02.407Z,100.00
2022-12-11T22:49:05.367Z,100.00
2022-12-11T22:52:07.599Z,100.00
2022-12-11T22:55:11.339Z,100.00
2022-12-11T22:58:18.569Z,100.00
2022-12-11T23:01:25.725Z,100.00
2022-12-11T23:04:36.823Z,100.00
2022-12-11T23:07:39.271Z,100.00
2022-12-11T23:10:55.717Z,100.00
2022-12-11T23:14:03.720Z,100.00
2022-12-11T23:17:05.892Z,100.00
2022-12-11T23:20:14.652Z,100.00
2022-12-11T23:23:30.362Z,100.00
2022-12-11T23:26:37.235Z,100.00
2022-12-11T23:29:59.684Z,100.00
2022-12-11T23:33:08.893Z,100.00
2022-12-11T23:36:16.301Z,100.00
2022-12-11T23:39:22.611Z,100.00
2022-12-11T23:42:37.060Z,100.00
2022-12-11T23:45:39.435Z,100.00
2022-12-11T23:48:42.320Z,100.00
2022-12-11T23:51:44.339Z,100.00
2022-12-11T23:54:47.285Z,100.00
2022-12-11T23:57:56.447Z,100.00
